Impacts METAR Board
IDs:

KDFW - Dallas-Ft Worth Intl, TX, US

Updated at: 2100 UTC 20 Jun 2019
Potential Impact None Slight Moderate High
Time 20/09Z 20/10Z 20/11Z 20/12Z 20/13Z 20/14Z 20/15Z 20/16Z 20/17Z 20/18Z 20/19Z 20/20Z 20/21Z
Temp78 76 75 74 77 81 85 87 90 91 93 95 95
Dewpt65 62 63 64 66 70 70 71 73 75 76 77 77
Altim29.76 29.77 29.78 29.78 29.78 29.79 29.78 29.78 29.76 29.75 29.74 29.73 29.72
VIS10 10 10 10 10 10 10 10 10 10 10 10 10
CIG190 -- 250 250 -- -- -- -- -- -- -- -- --
CoverBKNSCTBKNBKNFEWFEWCLRCLRFEWCLRCLRFEWFEW
FltCatVFRVFRVFRVFRVFRVFRVFRVFRVFRVFRVFRVFRVFR
WX--------------------------
WDir190180200190180180190190200190170180190
WSpd10 9 9 7 8 13 18 17 15 13 16 10 15
WGst-- -- -- -- -- -- -- 23 -- 20 -- 20 --
Raw hourly METARs
KDFW 200853Z 19010KT 10SM FEW070 BKN190 26/18 A2976 RMK AO2 SLP066 T02560183 51007
KDFW 200953Z 18009KT 10SM FEW065 SCT190 24/17 A2977 RMK AO2 SLP070 T02440167
KDFW 201053Z 20009KT 10SM SCT180 BKN250 24/17 A2978 RMK AO2 SLP073 T02390172
KDFW 201153Z 19007KT 10SM SCT180 BKN250 23/18 A2978 RMK AO2 SLP076 70016 T02330178 10278 20228 51009
KDFW 201253Z 18008KT 10SM FEW070 FEW180 25/19 A2978 RMK AO2 SLP076 T02500189
KDFW 201353Z 18013KT 10SM FEW090 FEW180 FEW250 27/21 A2979 RMK AO2 SLP076 T02720211
KDFW 201453Z 19018KT 10SM CLR 29/21 A2978 RMK AO2 PK WND 21027/1421 SLP075 T02940211 50000
KDFW 201553Z 19017G23KT 10SM CLR 31/22 A2978 RMK AO2 PK WND 20026/1458 SLP072 T03060217
KDFW 201653Z 20015KT 10SM FEW040 32/23 A2976 RMK AO2 SLP068 T03220228
KDFW 201753Z 19013G20KT 10SM CLR 33/24 A2975 RMK AO2 SLP066 T03280239 10328 20233 58010
KDFW 201853Z 17016KT 10SM CLR 34/24 A2974 RMK AO2 SLP060 T03390244
KDFW 201953Z 18010G20KT 10SM FEW050 35/25 A2973 RMK AO2 SLP056 T03500250
KDFW 202053Z 19015KT 10SM FEW050 35/25 A2972 RMK AO2 SLP053 T03500250 56012



Page loaded:  21:18 UTC  |   02:18 PM Pacific  |   03:18 PM Mountain  |   04:18 PM Central  |   05:18 PM Eastern

 

ADVISORIES

FORECASTS

FORECASTS

OBSERVATIONS

USER TOOLS

ABOUT US